Station: Portable Qfrj (North Tamborine)  

  Atmospheric Gas Attenuation - ITU Rec 676-11   ----------------- dB/100km -----------------
Date Time Temp RH % AH g/m3 Dew Point Wind Direction Speed kph Gust kph Barometer mB Rainfall Since 9am 24GHz 47GHz 76GHz 122GHz 134GHz 241GHz
08/05 12:20 15.9 28 3.79 -2.5 11 13 1013.1 0 9.3 18.4 21.7 56.1 39.4 131.8
08/05 12:10 15.6 26 3.46 -3.7 13 15 1013.1 0 8.6 18.0 20.7 53.5 36.1 120.0
08/05 12:00 15.3 29 3.79 -2.6 11 13 1013.1 0 9.3 18.5 21.9 56.5 39.7 132.7
08/05 11:50 15.2 27 3.5 -3.6 9 11 1013.1 0 8.7 18.1 21.0 54.1 36.7 122.0
08/05 11:40 14.7 26 3.27 -4.3 11 15 1013.1 0 8.3 17.9 20.3 52.4 34.5 114.2
08/05 11:30 14.4 27 3.34 -4.1 11 13 1013.1 0 8.4 18.1 20.6 53.2 35.4 117.2
08/05 11:20 13.9 31 3.72 -2.9 9 13 1013.1 0 9.2 18.7 22.0 56.8 39.7 132.3
08/05 11:10 13.7 32 3.79 -2.6 11 15 1013.1 0 9.4 18.8 22.3 57.6 40.5 135.3
08/05 11:00 14 33 3.98 -1.8 9 11 1013.1 0 9.8 19.0 22.8 59.1 42.4 142.1
08/05 10:50 13.9 33 3.96 -1.9 9 11 1013.1 0 9.7 19.0 22.8 59.0 42.3 141.5
08/05 10:40 14.4 36 4.45 -0.5 6 9 1013.1 0 10.8 19.6 24.3 63.0 47.4 159.6
08/05 10:30 14 37 4.46 -0.3 6 7 1013.1 0 10.8 19.7 24.4 63.4 47.7 160.8
08/05 10:20 13.9 34 4.08 -1.6 6 7 1013.1 0 10.0 19.2 23.2 60.0 43.6 146.1
08/05 10:10 14 35 4.22 -1.3 6 7 1013.1 0 10.3 19.3 23.6 61.2 45.1 151.4
08/05 10:00 14 32 3.86 -2.4 6 9 1013.1 0 9.5 18.8 22.4 58.0 41.1 137.5
08/05 09:50 14.8 30 3.8 -2.3 4 7 1013.1 0 9.4 18.6 22.0 56.9 40.1 133.9
08/05 09:40 14.3 35 4.3 -0.8 6 7 1013.1 0 10.4 19.4 23.8 61.7 45.8 154.0
08/05 09:30 14 34 4.1 -1.6 2 6 1013.1 0 10.0 19.2 23.2 60.1 43.8 146.7
08/05 09:20 13.1 28 3.2 -5.1 2 4 1013.1 0 8.2 18.1 20.5 52.9 34.4 113.8
08/05 09:10 12.2 31 3.35 -4.3 6 7 1013.1 0 8.5 18.5 21.2 54.8 36.4 120.7
08/05 09:00 11.5 31 3.2 -4.9 9 9 1013.1 0 8.2 18.5 20.9 53.9 35.1 116.0
08/05 08:50 11.3 33 3.37 -4.2 7 9 1013.1 0 8.6 18.7 21.5 55.5 37.1 122.8
08/05 08:40 11.3 34 3.47 -3.9 7 11 1013.1 0 8.8 18.9 21.9 56.4 38.2 126.7
08/05 08:30 12 32 3.41 -4.1 6 7 1013.1 0 8.6 18.6 21.5 55.4 37.2 123.3
08/05 08:20 11.5 31 3.2 -5 6 7 1013.1 0 8.2 18.5 20.9 53.9 35.1 116.0
08/05 08:10 11 33 3.3 -4.7 7 9 1013.1 0 8.4 18.7 21.4 55.1 36.4 120.6
08/05 08:00 10.6 33 3.22 -5.1 6 7 1013.1 0 8.3 18.7 21.2 54.7 35.7 118.0
08/05 07:50 10.5 35 3.4 -4.3 7 9 1013.1 0 8.7 18.9 21.8 56.4 37.8 125.2
08/05 07:40 10.4 34 3.28 -4.7 7 9 1013.1 0 8.4 18.8 21.5 55.4 36.5 120.7
08/05 07:30 10.2 42 4 -2.1 6 7 1013.1 0 9.9 19.8 24.0 62.1 44.7 149.6
08/05 07:20 10 37 3.48 -3.8 6 7 1013.1 0 8.8 19.1 22.2 57.4 38.9 129.1
08/05 07:10 9.7 40 3.69 -3.2 7 7 1013.1 0 9.3 19.5 23.0 59.6 41.4 138.0
08/05 07:00 9.7 39 3.6 -3.4 6 7 1013.1 0 9.1 19.4 22.7 58.7 40.4 134.4
08/05 06:50 9.2 41 3.66 -3.4 6 7 1013.1 0 9.2 19.6 23.1 59.7 41.3 137.6
08/05 06:40 8.6 46 3.95 -2.3 7 7 1013.1 0 9.9 20.1 24.3 62.8 45.0 150.5
08/05 06:30 7.6 46 3.71 -3.1 6 7 1013.1 0 9.4 20.0 23.7 61.3 42.8 142.4
08/05 06:20 6.8 56 4.29 -1.2 4 6 1013.1 0 10.7 21.0 26.0 67.6 50.2 168.4
08/05 06:00 8 49 4.05 -2 4 6 1013.1 0 10.1 20.4 24.8 64.3 46.5 155.8
08/05 05:50 8.2 57 4.78 0.3 4 6 1013.1 0 11.7 21.4 27.4 71.2 55.2 186.3
08/05 05:40 8.8 52 4.53 -0.4 7 9 1013.1 0 11.1 20.9 26.3 68.2 51.8 174.3
08/05 05:30 8.7 50 4.33 -1.2 6 9 1013.1 0 10.7 20.6 25.6 66.4 49.5 166.1
08/05 05:20 8.9 54 4.73 0.2 7 7 1013.1 0 11.5 21.2 27.0 70.1 54.1 182.5
08/05 05:10 9.3 53 4.76 0.2 7 9 1013.1 0 11.6 21.1 26.9 70.0 54.2 182.9
08/05 05:00 9.2 55 4.91 0.6 9 9 1013.1 0 11.9 21.4 27.5 71.6 56.1 189.5
08/05 04:50 9.3 56 5.03 1 7 9 1013.1 0 12.1 21.5 27.9 72.7 57.5 194.4
08/05 04:40 9.3 59 5.3 1.8 9 9 1013.1 0 12.7 21.9 28.9 75.4 60.8 206.0
08/05 04:30 9.6 58 5.31 1.8 7 9 1013.1 0 12.7 21.9 28.9 75.2 60.7 205.7
08/05 04:20 9.5 60 5.46 2.1 9 11 1013.1 0 13.1 22.1 29.5 76.8 62.6 212.4
08/05 04:10 9.7 59 5.44 2.1 13 15 1013.1 0 13.0 22.0 29.3 76.4 62.2 211.0
08/05 04:00 9.8 61 5.66 2.8 13 17 1013.1 0 13.5 22.3 30.1 78.5 64.8 220.3
08/05 03:50 10 62 5.83 3.2 13 17 1013.1 0 13.8 22.6 30.7 80.0 66.8 227.2
08/05 03:40 10.3 60 5.75 2.9 13 17 1013.1 0 13.7 22.4 30.2 78.9 65.5 222.9
08/05 03:30 10.5 60 5.82 3.1 13 15 1013.1 0 13.8 22.4 30.4 79.4 66.2 225.3
08/05 03:20 10.5 59 5.72 3 13 17 1013.1 0 13.6 22.3 30.1 78.4 65.0 221.0
08/05 03:10 10.5 62 6.01 3.5 13 17 1013.1 0 14.2 22.7 31.1 81.3 68.6 233.6
08/05 03:00 10.6 62 6.05 3.7 15 17 1013.1 0 14.3 22.7 31.3 81.6 69.0 235.1
08/05 02:50 10.5 63 6.11 3.7 13 19 1013.1 0 14.4 22.9 31.5 82.3 69.9 238.0
08/05 02:40 10.4 67 6.46 4.5 15 17 1013.1 0 15.2 23.4 32.9 86.0 74.4 253.9
08/05 02:30 10.7 66 6.48 4.6 13 19 1013.1 0 15.2 23.4 32.9 85.9 74.3 253.8
08/05 02:20 10.7 65 6.39 4.4 17 19 1013.1 0 15.0 23.2 32.5 85.0 73.2 249.8
08/05 02:10 10.9 65 6.47 4.6 19 20 1013.1 0 15.2 23.3 32.7 85.6 74.0 252.7
08/05 02:00 11 64 6.41 4.4 19 20 1013.1 0 15.0 23.2 32.5 84.8 73.2 249.7
08/05 01:50 11 65 6.51 4.7 20 24 1013.1 0 15.2 23.3 32.9 85.9 74.4 254.2
08/05 01:40 11.2 64 6.49 4.6 22 26 1013.1 0 15.2 23.3 32.7 85.5 74.0 252.7
08/05 01:30 11.2 64 6.49 4.7 19 22 1013.1 0 15.2 23.3 32.7 85.5 74.0 252.7
08/05 01:20 11.3 63 6.43 4.6 20 24 1013.1 0 15.1 23.1 32.4 84.7 73.1 249.7
08/05 01:10 11.5 62 6.4 4.6 22 26 1013.1 0 15.0 23.0 32.2 84.2 72.6 247.7
08/05 01:00 11.7 62 6.49 4.7 24 28 1013.1 0 15.2 23.1 32.5 84.9 73.5 251.1
08/05 00:50 12 61 6.5 4.7 24 30 1013.1 0 15.2 23.1 32.4 84.7 73.4 250.6
08/05 00:40 12.1 59 6.33 4.4 24 28 1013.1 0 14.8 22.8 31.7 82.9 71.2 242.8
08/05 00:30 12.3 59 6.41 4.5 22 26 1013.1 0 15.0 22.9 32.0 83.5 72.0 245.7
08/05 00:20 12.5 57 6.27 4.3 24 28 1013.1 0 14.7 22.6 31.3 81.9 70.1 239.0
08/05 00:10 12.8 56 6.27 4.3 24 30 1013.1 0 14.7 22.5 31.2 81.6 69.8 238.1
08/05 00:00 13 55 6.24 4.3 24 32 1013.1 0 14.6 22.4 31.0 81.1 69.3 236.3
07/05 23:50 13 54 6.12 4.1 26 30 1013.1 0 14.3 22.3 30.6 79.9 67.8 231.1
07/05 23:40 13.1 54 6.16 4.1 22 28 1013.1 0 14.4 22.3 30.7 80.2 68.2 232.6
07/05 23:30 13.3 53 6.12 3.9 19 24 1013.1 0 14.3 22.2 30.5 79.6 67.5 230.3
07/05 23:20 13.5 52 6.08 3.9 15 19 1013.1 0 14.2 22.1 30.3 79.0 66.9 228.0
07/05 23:10 13.6 51 6 3.6 17 22 1013.1 0 14.1 21.9 29.9 78.1 65.9 224.4
07/05 23:00 13.7 50 5.92 3.5 22 28 1013.1 0 13.9 21.8 29.6 77.3 64.8 220.7
07/05 22:50 13.8 49 5.84 3.3 24 35 1013.1 0 13.7 21.6 29.3 76.4 63.8 217.1
07/05 22:40 13.8 48 5.72 3.1 22 24 1013.1 0 13.5 21.5 28.9 75.2 62.4 212.1
07/05 22:30 14 47 5.67 2.8 26 32 1013.1 0 13.3 21.4 28.6 74.6 61.6 209.5
07/05 22:20 14.2 46 5.62 2.8 28 32 1013.1 0 13.2 21.2 28.4 73.9 60.9 207.0
07/05 22:10 14.3 45 5.53 2.6 26 30 1013.1 0 13.0 21.1 28.0 73.0 59.8 203.0
07/05 22:00 14.4 46 5.69 2.9 20 22 1013.1 0 13.4 21.3 28.5 74.4 61.5 209.3
07/05 21:50 14.6 44 5.51 2.6 20 24 1013.1 0 13.0 21.0 27.8 72.5 59.3 201.5
07/05 21:40 14.9 43 5.48 2.4 17 22 1013.1 0 12.9 20.9 27.6 72.0 58.7 199.5
07/05 21:30 14.9 41 5.23 2 17 22 1013.1 0 12.4 20.5 26.8 69.7 55.9 189.4
07/05 21:20 15.2 41 5.32 2 19 22 1013.1 0 12.6 20.6 27.0 70.2 56.7 192.3
07/05 21:10 15.2 41 5.32 2.1 15 19 1013.1 0 12.6 20.6 27.0 70.2 56.7 192.3
07/05 21:00 15.6 41 5.45 2.4 15 19 1013.1 0 12.8 20.7 27.3 71.1 57.9 196.6
07/05 20:50 15.9 39 5.28 2.2 17 20 1013.1 0 12.5 20.4 26.6 69.3 55.7 189.1
07/05 20:40 16 40 5.45 2.5 19 22 1013.1 0 12.8 20.6 27.2 70.7 57.6 195.7
07/05 20:30 16.1 39 5.35 2.4 22 26 1013.1 0 12.6 20.4 26.8 69.7 56.4 191.4
07/05 20:20 16 40 5.45 2.6 22 26 1013.1 0 12.8 20.6 27.2 70.7 57.6 195.7
07/05 20:10 16.1 41 5.62 3.1 19 26 1013.1 0 13.2 20.8 27.7 72.2 59.5 202.2
07/05 20:00 16.2 41 5.65 3.1 20 22 1013.1 0 13.2 20.8 27.8 72.4 59.7 203.2
07/05 19:50 16.2 41 5.65 2.9 20 24 1013.1 0 13.2 20.8 27.8 72.4 59.7 203.2
07/05 19:40 16.4 40 5.58 3 20 24 1013.1 0 13.1 20.7 27.5 71.6 58.8 199.9

Last Refresh: 08-May-2026 12:09:25

Bureau of Meteorology